Time,TemperatureF,DewpointF,PressureIn,WindDirection,WindDirectionDegrees,WindSpeedMPH,WindSpeedGustMPH,Humidity,HourlyPrecipIn,Conditions,Clouds,dailyrainin,SoftwareType,DateUTC
2013-05-07 00:02:00,40.0,36.0,-100.00,NE,35,4.0,4.0,85,-99.99,,,-99.99,,2013-05-07 06:02:00,
2013-05-07 00:12:00,40.0,36.0,-100.00,ENE,60,2.0,6.0,84,-99.99,,,-99.99,,2013-05-07 06:12:00,
2013-05-07 00:22:00,40.0,36.0,-100.00,ENE,65,3.0,4.0,83,-99.99,,,-99.99,,2013-05-07 06:22:00,
2013-05-07 00:32:00,40.0,36.0,-100.00,NNE,30,3.0,4.0,83,-99.99,,,-99.99,,2013-05-07 06:32:00,
2013-05-07 00:42:00,40.0,35.0,-100.00,NE,40,3.0,4.0,82,-99.99,,,-99.99,,2013-05-07 06:42:00,
2013-05-07 00:52:00,40.0,35.0,-100.00,NE,55,4.0,4.0,82,-99.99,,,-99.99,,2013-05-07 06:52:00,
2013-05-07 01:02:00,40.0,35.0,-100.00,NNE,30,2.0,4.0,81,-99.99,,,-99.99,,2013-05-07 07:02:00,
2013-05-07 01:11:00,40.0,35.0,-100.00,North,0,2.0,3.0,81,-99.99,,,-99.99,,2013-05-07 07:11:00,
2013-05-07 01:22:00,40.0,35.0,-100.00,North,355,1.0,2.0,81,-99.99,,,-99.99,,2013-05-07 07:22:00,
2013-05-07 01:31:00,39.0,34.0,-100.00,North,0,2.0,2.0,82,-99.99,,,-99.99,,2013-05-07 07:31:00,
2013-05-07 01:42:00,40.0,34.0,-100.00,North,350,4.0,4.0,81,-99.99,,,-99.99,,2013-05-07 07:42:00,
2013-05-07 01:52:00,40.0,35.0,-100.00,NNW,340,2.0,4.0,81,-99.99,,,-99.99,,2013-05-07 07:52:00,
2013-05-07 02:02:00,40.0,34.0,-100.00,NW,320,1.0,2.0,80,-99.99,,,-99.99,,2013-05-07 08:02:00,
2013-05-07 02:11:00,40.0,34.0,-100.00,NW,320,0.0,2.0,79,-99.99,,,-99.99,,2013-05-07 08:11:00,
2013-05-07 02:21:00,40.0,33.0,-100.00,NW,320,0.0,0.0,75,-99.99,,,-99.99,,2013-05-07 08:21:00,
2013-05-07 02:31:00,40.0,33.0,-100.00,NW,320,0.0,1.0,74,-99.99,,,-99.99,,2013-05-07 08:31:00,
2013-05-07 02:41:00,38.0,33.0,-100.00,West,275,6.0,7.0,79,-99.99,,,-99.99,,2013-05-07 08:41:00,
2013-05-07 02:52:00,36.0,32.0,-100.00,WNW,285,8.0,9.0,85,-99.99,,,-99.99,,2013-05-07 08:52:00,
2013-05-07 03:01:00,36.0,33.0,-100.00,West,275,9.0,9.0,88,-99.99,,,-99.99,,2013-05-07 09:01:00,
2013-05-07 03:11:00,36.0,33.0,-100.00,West,275,8.0,10.0,88,-99.99,,,-99.99,,2013-05-07 09:11:00,
2013-05-07 03:22:00,36.0,34.0,-100.00,West,275,7.0,9.0,89,-99.99,,,-99.99,,2013-05-07 09:22:00,
2013-05-07 03:33:00,37.0,34.0,-100.00,West,280,9.0,10.0,89,-99.99,,,-99.99,,2013-05-07 09:33:00,
2013-05-07 03:42:00,37.0,34.0,-100.00,WNW,290,9.0,10.0,89,-99.99,,,-99.99,,2013-05-07 09:42:00,
2013-05-07 03:52:00,37.0,35.0,-100.00,West,280,9.0,10.0,90,-99.99,,,-99.99,,2013-05-07 09:52:00,
2013-05-07 04:03:00,38.0,35.0,-100.00,WNW,295,13.0,15.0,90,-99.99,,,-99.99,,2013-05-07 10:03:00,
2013-05-07 04:12:00,38.0,35.0,-100.00,West,280,14.0,17.0,89,-99.99,,,-99.99,,2013-05-07 10:12:00,
2013-05-07 04:23:00,37.0,35.0,-100.00,WNW,295,13.0,17.0,89,-99.99,,,-99.99,,2013-05-07 10:23:00,
2013-05-07 04:32:00,37.0,35.0,-100.00,West,275,12.0,16.0,89,-99.99,,,-99.99,,2013-05-07 10:32:00,
2013-05-07 04:42:00,37.0,35.0,-100.00,West,275,11.0,15.0,91,-99.99,,,-99.99,,2013-05-07 10:42:00,
2013-05-07 04:52:00,36.0,35.0,-100.00,West,275,10.0,14.0,93,-99.99,,,-99.99,,2013-05-07 10:52:00,
2013-05-07 05:02:00,36.0,35.0,-100.00,West,280,10.0,13.0,95,-99.99,,,-99.99,,2013-05-07 11:02:00,
2013-05-07 05:12:00,36.0,35.0,-100.00,West,280,10.0,13.0,95,-99.99,,,-99.99,,2013-05-07 11:12:00,
2013-05-07 05:22:00,36.0,35.0,-100.00,WNW,290,10.0,12.0,96,-99.99,,,-99.99,,2013-05-07 11:22:00,
2013-05-07 05:32:00,36.0,35.0,-100.00,WNW,295,9.0,12.0,96,-99.99,,,-99.99,,2013-05-07 11:32:00,
2013-05-07 05:42:00,36.0,36.0,-100.00,West,275,10.0,12.0,96,-99.99,,,-99.99,,2013-05-07 11:42:00,
2013-05-07 05:51:00,37.0,35.0,-100.00,West,280,9.0,12.0,95,-99.99,,,-99.99,,2013-05-07 11:51:00,
2013-05-07 06:02:00,37.0,35.0,-100.00,WNW,285,12.0,14.0,91,-99.99,,,-99.99,,2013-05-07 12:02:00,
2013-05-07 06:11:00,37.0,35.0,-100.00,West,280,9.0,14.0,91,-99.99,,,-99.99,,2013-05-07 12:11:00,
2013-05-07 06:21:00,38.0,36.0,-100.00,West,270,10.0,12.0,91,-99.99,,,-99.99,,2013-05-07 12:21:00,
2013-05-07 06:32:00,39.0,36.0,-100.00,West,265,12.0,15.0,91,-99.99,,,-99.99,,2013-05-07 12:32:00,
2013-05-07 06:42:00,38.0,36.0,-100.00,West,270,12.0,15.0,91,-99.99,,,-99.99,,2013-05-07 12:42:00,
2013-05-07 06:52:00,38.0,36.0,-100.00,West,270,11.0,14.0,92,-99.99,,,-99.99,,2013-05-07 12:52:00,
2013-05-07 07:02:00,37.0,36.0,-100.00,West,270,11.0,12.0,92,-99.99,,,-99.99,,2013-05-07 13:02:00,
2013-05-07 07:11:00,37.0,36.0,-100.00,West,270,11.0,12.0,92,-99.99,,,-99.99,,2013-05-07 13:11:00,
2013-05-07 07:21:00,37.0,36.0,-100.00,WNW,285,10.0,12.0,93,-99.99,,,-99.99,,2013-05-07 13:21:00,
2013-05-07 07:32:00,38.0,36.0,-100.00,WNW,290,12.0,15.0,92,-99.99,,,-99.99,,2013-05-07 13:32:00,
2013-05-07 07:42:00,39.0,37.0,-100.00,WNW,290,12.0,16.0,91,-99.99,,,-99.99,,2013-05-07 13:42:00,
2013-05-07 07:52:00,39.0,37.0,-100.00,WNW,295,11.0,16.0,91,-99.99,,,-99.99,,2013-05-07 13:52:00,
2013-05-07 08:02:00,40.0,37.0,-100.00,WNW,290,12.0,16.0,91,-99.99,,,-99.99,,2013-05-07 14:02:00,
2013-05-07 08:11:00,40.0,38.0,-100.00,WNW,285,13.0,17.0,92,-99.99,,,-99.99,,2013-05-07 14:11:00,
2013-05-07 08:21:00,39.0,37.0,-100.00,West,280,12.0,17.0,93,-99.99,,,-99.99,,2013-05-07 14:21:00,
2013-05-07 08:32:00,39.0,38.0,-100.00,West,280,15.0,18.0,94,-99.99,,,-99.99,,2013-05-07 14:32:00,
2013-05-07 08:42:00,40.0,38.0,-100.00,West,275,15.0,18.0,93,-99.99,,,-99.99,,2013-05-07 14:42:00,
2013-05-07 08:52:00,40.0,38.0,-100.00,West,275,14.0,19.0,92,-99.99,,,-99.99,,2013-05-07 14:52:00,
2013-05-07 09:01:00,41.0,38.0,-100.00,West,280,12.0,19.0,90,-99.99,,,-99.99,,2013-05-07 15:01:00,
2013-05-07 09:12:00,41.0,38.0,-100.00,West,280,12.0,19.0,89,-99.99,,,-99.99,,2013-05-07 15:12:00,
2013-05-07 09:21:00,41.0,38.0,-100.00,West,270,15.0,20.0,88,-99.99,,,-99.99,,2013-05-07 15:21:00,
2013-05-07 09:33:00,41.0,37.0,-100.00,West,275,18.0,22.0,85,-99.99,,,-99.99,,2013-05-07 15:33:00,
2013-05-07 09:42:00,41.0,37.0,-100.00,West,275,17.0,22.0,85,-99.99,,,-99.99,,2013-05-07 15:42:00,
2013-05-07 09:53:00,41.0,36.0,-100.00,West,260,17.0,22.0,84,-99.99,,,-99.99,,2013-05-07 15:53:00,
2013-05-07 10:03:00,41.0,37.0,-100.00,West,275,16.0,21.0,85,-99.99,,,-99.99,,2013-05-07 16:03:00,
2013-05-07 10:12:00,41.0,37.0,-100.00,West,265,16.0,21.0,84,-99.99,,,-99.99,,2013-05-07 16:12:00,
2013-05-07 10:22:00,42.0,37.0,-100.00,West,270,16.0,22.0,84,-99.99,,,-99.99,,2013-05-07 16:22:00,
2013-05-07 10:32:00,42.0,38.0,-100.00,West,265,17.0,21.0,82,-99.99,,,-99.99,,2013-05-07 16:32:00,
2013-05-07 10:41:00,42.0,38.0,-100.00,West,275,14.0,21.0,84,-99.99,,,-99.99,,2013-05-07 16:41:00,
2013-05-07 10:51:00,42.0,39.0,-100.00,West,265,16.0,19.0,88,-99.99,,,-99.99,,2013-05-07 16:51:00,
2013-05-07 11:01:00,42.0,38.0,-100.00,West,270,16.0,19.0,86,-99.99,,,-99.99,,2013-05-07 17:01:00,
2013-05-07 11:12:00,43.0,39.0,-100.00,WSW,255,16.0,20.0,85,-99.99,,,-99.99,,2013-05-07 17:12:00,
2013-05-07 11:21:00,45.0,40.0,-100.00,West,260,15.0,19.0,82,-99.99,,,-99.99,,2013-05-07 17:21:00,
2013-05-07 11:31:00,45.0,38.0,-100.00,West,270,15.0,21.0,78,-99.99,,,-99.99,,2013-05-07 17:31:00,
2013-05-07 11:41:00,45.0,38.0,-100.00,WSW,255,21.0,26.0,74,-99.99,,,-99.99,,2013-05-07 17:41:00,
2013-05-07 11:52:00,45.0,37.0,-100.00,West,260,12.0,23.0,72,-99.99,,,-99.99,,2013-05-07 17:52:00,
2013-05-07 12:01:00,47.0,37.0,-100.00,West,280,14.0,21.0,69,-99.99,,,-99.99,,2013-05-07 18:01:00,
2013-05-07 12:21:00,46.0,36.0,-100.00,WSW,245,14.0,24.0,67,-99.99,,,-99.99,,2013-05-07 18:21:00,
2013-05-07 12:31:00,47.0,36.0,-100.00,West,270,15.0,21.0,66,-99.99,,,-99.99,,2013-05-07 18:31:00,
2013-05-07 12:41:00,47.0,36.0,-100.00,SW,225,15.0,19.0,65,-99.99,,,-99.99,,2013-05-07 18:41:00,
2013-05-07 12:51:00,48.0,36.0,-100.00,West,265,14.0,18.0,62,-99.99,,,-99.99,,2013-05-07 18:51:00,
2013-05-07 13:02:00,49.0,36.0,-100.00,WNW,285,12.0,17.0,60,-99.99,,,-99.99,,2013-05-07 19:02:00,
2013-05-07 13:11:00,49.0,35.0,-100.00,West,280,9.0,18.0,58,-99.99,,,-99.99,,2013-05-07 19:11:00,
2013-05-07 13:21:00,49.0,34.0,-100.00,West,275,10.0,16.0,57,-99.99,,,-99.99,,2013-05-07 19:21:00,
2013-05-07 13:32:00,48.0,35.0,-100.00,WSW,250,16.0,22.0,58,-99.99,,,-99.99,,2013-05-07 19:32:00,
2013-05-07 13:42:00,48.0,35.0,-100.00,West,280,9.0,20.0,61,-99.99,,,-99.99,,2013-05-07 19:42:00,
2013-05-07 13:52:00,47.0,34.0,-100.00,WSW,245,15.0,21.0,58,-99.99,,,-99.99,,2013-05-07 19:52:00,
2013-05-07 14:02:00,49.0,35.0,-100.00,SW,230,13.0,17.0,57,-99.99,,,-99.99,,2013-05-07 20:02:00,
2013-05-07 14:11:00,49.0,34.0,-100.00,WSW,255,16.0,19.0,56,-99.99,,,-99.99,,2013-05-07 20:11:00,
2013-05-07 14:21:00,50.0,34.0,-100.00,SW,230,17.0,22.0,54,-99.99,,,-99.99,,2013-05-07 20:21:00,
2013-05-07 14:32:00,50.0,34.0,-100.00,WSW,250,12.0,21.0,54,-99.99,,,-99.99,,2013-05-07 20:32:00,
2013-05-07 14:42:00,50.0,34.0,-100.00,WNW,285,8.0,20.0,54,-99.99,,,-99.99,,2013-05-07 20:42:00,
2013-05-07 14:51:00,51.0,34.0,-100.00,WSW,245,7.0,19.0,51,-99.99,,,-99.99,,2013-05-07 20:51:00,
2013-05-07 15:01:00,50.0,34.0,-100.00,WNW,300,10.0,21.0,54,-99.99,,,-99.99,,2013-05-07 21:01:00,
2013-05-07 15:11:00,50.0,34.0,-100.00,West,280,9.0,18.0,54,-99.99,,,-99.99,,2013-05-07 21:11:00,
2013-05-07 15:21:00,50.0,35.0,-100.00,WNW,300,11.0,16.0,54,-99.99,,,-99.99,,2013-05-07 21:21:00,
2013-05-07 15:32:00,51.0,35.0,-100.00,WNW,300,11.0,14.0,52,-99.99,,,-99.99,,2013-05-07 21:32:00,
2013-05-07 15:52:00,48.0,37.0,-100.00,NE,45,9.0,12.0,66,-99.99,,,-99.99,,2013-05-07 21:52:00,
2013-05-07 16:02:00,47.0,38.0,-100.00,ENE,60,13.0,17.0,69,-99.99,,,-99.99,,2013-05-07 22:02:00,
2013-05-07 16:13:00,48.0,38.0,-100.00,NE,50,11.0,17.0,69,-99.99,,,-99.99,,2013-05-07 22:13:00,
2013-05-07 16:22:00,48.0,39.0,-100.00,ENE,70,8.0,12.0,70,-99.99,,,-99.99,,2013-05-07 22:22:00,
2013-05-07 16:33:00,48.0,38.0,-100.00,North,10,6.0,11.0,69,-99.99,,,-99.99,,2013-05-07 22:33:00,
2013-05-07 16:42:00,48.0,38.0,-100.00,NE,45,4.0,10.0,68,-99.99,,,-99.99,,2013-05-07 22:42:00,
2013-05-07 16:52:00,47.0,37.0,-100.00,NE,35,7.0,9.0,67,-99.99,,,-99.99,,2013-05-07 22:52:00,
2013-05-07 17:02:00,46.0,38.0,-100.00,NNE,25,9.0,11.0,72,-99.99,,,-99.99,,2013-05-07 23:02:00,
2013-05-07 17:12:00,47.0,38.0,-100.00,NNE,15,6.0,9.0,72,-99.99,,,-99.99,,2013-05-07 23:12:00,
2013-05-07 17:21:00,47.0,40.0,-100.00,ENE,75,9.0,11.0,75,-99.99,,,-99.99,,2013-05-07 23:21:00,
2013-05-07 17:32:00,47.0,39.0,-100.00,ENE,75,11.0,12.0,75,-99.99,,,-99.99,,2013-05-07 23:32:00,
2013-05-07 17:41:00,47.0,39.0,-100.00,ENE,70,6.0,10.0,73,-99.99,,,-99.99,,2013-05-07 23:41:00,
2013-05-07 17:52:00,46.0,40.0,-100.00,East,100,6.0,10.0,77,-99.99,,,-99.99,,2013-05-07 23:52:00,
2013-05-07 18:02:00,46.0,40.0,-100.00,ESE,115,6.0,8.0,78,-99.99,,,-99.99,,2013-05-08 00:02:00,
2013-05-07 18:11:00,45.0,40.0,-100.00,ESE,105,7.0,8.0,81,-99.99,,,-99.99,,2013-05-08 00:11:00,
2013-05-07 18:21:00,45.0,40.0,-100.00,ESE,120,7.0,9.0,83,-99.99,,,-99.99,,2013-05-08 00:21:00,
2013-05-07 18:32:00,42.0,41.0,-100.00,ENE,75,11.0,12.0,96,-99.99,,,-99.99,,2013-05-08 00:32:00,
2013-05-07 18:42:00,39.0,39.0,-100.00,NE,55,10.0,14.0,99,-99.99,,,-99.99,,2013-05-08 00:42:00,
2013-05-07 18:51:00,39.0,38.0,-100.00,East,85,7.0,-999.0,99,-99.99,,,-99.99,,2013-05-08 00:51:00,
2013-05-07 19:02:00,38.0,38.0,-100.00,NE,40,9.0,11.0,99,-99.99,,,-99.99,,2013-05-08 01:02:00,
2013-05-07 19:11:00,39.0,38.0,-100.00,ENE,65,8.0,11.0,99,-99.99,,,-99.99,,2013-05-08 01:11:00,
2013-05-07 19:21:00,39.0,38.0,-100.00,NNE,30,10.0,12.0,99,-99.99,,,-99.99,,2013-05-08 01:21:00,
2013-05-07 19:32:00,38.0,38.0,-100.00,NNE,25,10.0,13.0,99,-99.99,,,-99.99,,2013-05-08 01:32:00,
2013-05-07 19:42:00,39.0,38.0,-100.00,North,10,9.0,14.0,99,-99.99,,,-99.99,,2013-05-08 01:42:00,
2013-05-07 19:52:00,39.0,38.0,-100.00,NE,40,4.0,9.0,99,-99.99,,,-99.99,,2013-05-08 01:52:00,
2013-05-07 20:01:00,39.0,39.0,-100.00,North,5,2.0,6.0,99,-99.99,,,-99.99,,2013-05-08 02:01:00,
2013-05-07 20:12:00,39.0,39.0,-100.00,North,5,3.0,4.0,99,-99.99,,,-99.99,,2013-05-08 02:12:00,
2013-05-07 20:22:00,39.0,39.0,-100.00,North,350,4.0,7.0,99,-99.99,,,-99.99,,2013-05-08 02:22:00,
2013-05-07 20:32:00,39.0,39.0,-100.00,NNE,25,4.0,6.0,99,-99.99,,,-99.99,,2013-05-08 02:32:00,
2013-05-07 20:42:00,39.0,39.0,-100.00,NNW,345,6.0,8.0,99,-99.99,,,-99.99,,2013-05-08 02:42:00,
2013-05-07 20:52:00,39.0,39.0,-100.00,NW,320,7.0,8.0,99,-99.99,,,-99.99,,2013-05-08 02:52:00,
2013-05-07 21:02:00,39.0,38.0,-100.00,NW,305,6.0,7.0,99,-99.99,,,-99.99,,2013-05-08 03:02:00,
2013-05-07 21:11:00,39.0,38.0,-100.00,NW,315,6.0,7.0,95,-99.99,,,-99.99,,2013-05-08 03:11:00,
2013-05-07 21:21:00,39.0,37.0,-100.00,NW,305,6.0,7.0,93,-99.99,,,-99.99,,2013-05-08 03:21:00,
2013-05-07 21:32:00,39.0,37.0,-100.00,WNW,300,9.0,9.0,91,-99.99,,,-99.99,,2013-05-08 03:32:00,
2013-05-07 21:43:00,40.0,38.0,-100.00,WNW,300,14.0,17.0,92,-99.99,,,-99.99,,2013-05-08 03:43:00,
2013-05-07 21:52:00,39.0,38.0,-100.00,WNW,295,11.0,15.0,97,-99.99,,,-99.99,,2013-05-08 03:52:00,
2013-05-07 22:02:00,39.0,38.0,-100.00,WNW,295,11.0,13.0,97,-99.99,,,-99.99,,2013-05-08 04:02:00,
2013-05-07 22:13:00,39.0,38.0,-100.00,WNW,295,11.0,14.0,97,-99.99,,,-99.99,,2013-05-08 04:13:00,
2013-05-07 22:23:00,39.0,36.0,-100.00,WNW,290,10.0,13.0,91,-99.99,,,-99.99,,2013-05-08 04:23:00,
2013-05-07 22:33:00,39.0,36.0,-100.00,WNW,295,9.0,12.0,87,-99.99,,,-99.99,,2013-05-08 04:33:00,
2013-05-07 22:42:00,39.0,35.0,-100.00,WNW,285,8.0,11.0,87,-99.99,,,-99.99,,2013-05-08 04:42:00,
2013-05-07 22:52:00,39.0,35.0,-100.00,WNW,290,8.0,9.0,84,-99.99,,,-99.99,,2013-05-08 04:52:00,
2013-05-07 23:02:00,40.0,34.0,-100.00,WNW,290,9.0,9.0,79,-99.99,,,-99.99,,2013-05-08 05:02:00,
2013-05-07 23:12:00,40.0,34.0,-100.00,WNW,285,7.0,9.0,78,-99.99,,,-99.99,,2013-05-08 05:12:00,
2013-05-07 23:22:00,40.0,34.0,-100.00,West,270,6.0,7.0,78,-99.99,,,-99.99,,2013-05-08 05:22:00,
2013-05-07 23:32:00,39.0,33.0,-100.00,West,280,8.0,12.0,79,-99.99,,,-99.99,,2013-05-08 05:32:00,
2013-05-07 23:42:00,39.0,34.0,-100.00,West,280,9.0,11.0,82,-99.99,,,-99.99,,2013-05-08 05:42:00,
2013-05-07 23:52:00,38.0,34.0,-100.00,West,280,9.0,10.0,86,-99.99,,,-99.99,,2013-05-08 05:52:00,